CheckWX is a tool to help pilots better visualize weather data.  It is not intended as a substitute for an official pre-flight weather briefing.

17:58:06 UTC

CYBD METAR
Bella Coola Airport
Bella Coola, Canada
Current

58 mins ago

CYBD 181700Z 29009KT 8SM -SHRA FEW012 FEW020 BKN060 OVC070 12/11 A2993 RMK SC1SC1SC3AC3 CVCTV CLD EMBD SLP137
Observed
Jul-18 @ 17:00 UTC
Wind
  • 290° at 9 KTS
Visibility
8 SM
Flight Rules
VFR
Conditions
Light Rain
Cloud Levels
  • Few at 1,200' AGL
  • Few at 2,000' AGL
  • Broken at 6,000' AGL
  • Overcast at 7,000' AGL
Temperature
12°C / 54°F
Dewpoint
11°C / 52°F
Humidity
94%
Altimeter
29.93" Hg
Pressure
1013.52 hPa
Previous

2 hours ago

CYBD 181600Z 29007KT 8SM -SHRA FEW010 FEW024 BKN058 BKN070 12/10 A2993 RMK SC1SC1SC3AC2 VIS E 4 CVCTV CLD EMBD SLP136
Observed
Jul-18 @ 16:00 UTC
Wind
  • 290° at 7 KTS
Visibility
8 SM
Flight Rules
VFR
Conditions
Light Rain
Cloud Levels
  • Few at 1,000' AGL
  • Few at 2,400' AGL
  • Broken at 5,800' AGL
  • Broken at 7,000' AGL
Temperature
12°C / 54°F
Dewpoint
10°C / 50°F
Humidity
88%
Altimeter
29.93" Hg
Pressure
1013.52 hPa
Previous

3 hours ago

CYBD 181500Z 29010KT 8SM -SHRA FEW010 FEW036 BKN054TCU OVC070 12/10 A2992 RMK SC1SC1TCU3AC3 SLP135
Observed
Jul-18 @ 15:00 UTC
Wind
  • 290° at 10 KTS
Visibility
8 SM
Flight Rules
VFR
Conditions
Light Rain
Cloud Levels
  • Few at 1,000' AGL
  • Few at 3,600' AGL
  • Broken at 5,400' AGL
  • Overcast at 7,000' AGL
Temperature
12°C / 54°F
Dewpoint
10°C / 50°F
Humidity
88%
Altimeter
29.92" Hg
Pressure
1013.22 hPa